Colmar — DG3933 — position and weather

sailwx.info

Track history (hours):
 
Tides and Currents Weather Stations Pressure Air Temp Water Temp Dewpoint Dewpoint Depression Visibility Wind Speed Wind Dir Waves Ship Positions

Colmar

Last reported at 2017-Oct-16 00:10 UTC. Time now 2017-Oct-17 22:55 UTC.
Position N 45°11' E 020°11'.

Length 177 m; draft 2.4 m.

Type: Cargo ship. MMSI: 211557960.

Date/timePositionNaut miles runAvg speedWind from/ knotsBaromVisibWave heightAir tempDewpointWater temp
2017-Oct-16 00:10N 45°11' E 020°11'10 2.6
2017-Oct-15 20:19N 45°03' E 020°21'1 2.9
2017-Oct-15 20:00N 45°03' E 020°21'1 2.9
2017-Oct-15 19:31N 45°01' E 020°22'1 2.5
2017-Oct-15 19:00N 45°00' E 020°21'1 2.8
2017-Oct-15 18:30N 44°60' E 020°19'1 2.8
2017-Oct-15 18:01N 44°59' E 020°18'1 2.8
2017-Oct-15 17:30N 44°58' E 020°17'1 2.8
2017-Oct-15 17:01N 44°56' E 020°18'1 2.8
2017-Oct-15 16:30N 44°55' E 020°20'1 2.9
2017-Oct-15 16:01N 44°54' E 020°21'2 3.1
2017-Oct-15 15:31N 44°53' E 020°22'1 2.8
2017-Oct-15 15:01N 44°52' E 020°23'3 2.9
2017-Oct-15 14:01N 44°50' E 020°27'2 3.2
2017-Oct-15 13:30N 44°50' E 020°29'2 3.3
2017-Oct-15 13:00N 44°50' E 020°31'2 3.4
2017-Oct-15 12:30N 44°51' E 020°33'2 3.4
2017-Oct-15 12:00N 44°51' E 020°36'2 3.4
2017-Oct-15 11:30N 44°51' E 020°38'1 1.5
2017-Oct-15 11:00N 44°50' E 020°38'0 0.0
2017-Oct-15 10:30N 44°50' E 020°38'0 0.0
2017-Oct-15 10:00N 44°50' E 020°38'1 1.1
2017-Oct-15 09:30N 44°51' E 020°39'0 0.2
2017-Oct-15 09:00N 44°51' E 020°39'0 0.0
2017-Oct-15 08:30N 44°51' E 020°39'0 0.0
2017-Oct-15 08:00N 44°51' E 020°39'0 0.0
2017-Oct-15 07:30N 44°51' E 020°39'0 0.0
2017-Oct-15 07:00N 44°51' E 020°39'0 0.0
2017-Oct-15 06:30N 44°51' E 020°39'0 0.0
2017-Oct-15 06:00N 44°51' E 020°39'0 0.0
2017-Oct-15 05:30N 44°51' E 020°39'0 0.0
2017-Oct-15 05:00N 44°51' E 020°39'1 1.2
2017-Oct-15 04:30N 44°50' E 020°38'0 0.0
2017-Oct-15 03:59N 44°50' E 020°38'0 0.0
2017-Oct-15 03:28N 44°50' E 020°38'0 0.0
2017-Oct-15 03:00N 44°50' E 020°38'0 0.0
2017-Oct-15 02:30N 44°50' E 020°38'0 0.0
2017-Oct-15 01:58N 44°50' E 020°38'0 0.0
2017-Oct-15 01:30N 44°50' E 020°38'0 0.0
2017-Oct-15 01:00N 44°50' E 020°38'0 0.0
2017-Oct-15 00:30N 44°50' E 020°38'0 0.0
2017-Oct-15 00:00N 44°50' E 020°38'0 0.0
2017-Oct-14 23:30N 44°50' E 020°38'0 0.0
2017-Oct-14 23:00N 44°50' E 020°38'0 0.0
2017-Oct-14 22:30N 44°50' E 020°38'0 0.0
2017-Oct-14 22:00N 44°50' E 020°38'0 0.0
2017-Oct-14 21:30N 44°50' E 020°38'0 0.0
2017-Oct-14 21:00N 44°50' E 020°38'0 0.0
2017-Oct-14 20:30N 44°50' E 020°38'1 1.3
2017-Oct-14 20:00N 44°51' E 020°39'0 0.0
2017-Oct-14 19:30N 44°51' E 020°39'0 0.0
2017-Oct-14 19:00N 44°51' E 020°39'0 0.0
2017-Oct-14 18:30N 44°51' E 020°39'0 0.0
2017-Oct-14 18:00N 44°51' E 020°39'0 0.0
2017-Oct-14 17:30N 44°51' E 020°39'0 0.0
2017-Oct-14 17:00N 44°51' E 020°39'0 0.0
2017-Oct-14 16:30N 44°51' E 020°39'0 0.0
2017-Oct-14 16:00N 44°51' E 020°39'0 0.0
2017-Oct-14 15:30N 44°51' E 020°39'0 0.0
2017-Oct-14 15:00N 44°51' E 020°39'0 0.0
2017-Oct-14 14:30N 44°51' E 020°39'0 0.0
2017-Oct-14 14:00N 44°51' E 020°39'0 0.0
2017-Oct-14 13:30N 44°51' E 020°39'0 0.0
2017-Oct-14 13:00N 44°51' E 020°39'0 0.0
2017-Oct-14 12:30N 44°51' E 020°39'0 0.0
2017-Oct-14 12:00N 44°51' E 020°39'0 0.0
2017-Oct-14 11:30N 44°51' E 020°39'0 0.0
2017-Oct-14 11:00N 44°51' E 020°39'0 0.0
2017-Oct-14 10:30N 44°51' E 020°39'0 0.0
2017-Oct-14 10:00N 44°51' E 020°39'0 0.0
2017-Oct-14 09:30N 44°51' E 020°39'0 0.0
2017-Oct-14 09:00N 44°51' E 020°39'0 0.0
2017-Oct-14 08:30N 44°51' E 020°39'0 0.0
2017-Oct-14 08:00N 44°51' E 020°39'0 0.0
2017-Oct-14 07:30N 44°51' E 020°39'0 0.0
2017-Oct-14 07:00N 44°51' E 020°39'0 0.0
2017-Oct-14 06:30N 44°51' E 020°39'0 0.0
2017-Oct-14 06:00N 44°51' E 020°39'0 0.0
2017-Oct-14 05:30N 44°51' E 020°39'0 0.0
2017-Oct-14 05:00N 44°51' E 020°39'0 0.0
2017-Oct-14 04:30N 44°51' E 020°39'1 1.2
2017-Oct-14 04:00N 44°50' E 020°38'0 0.0
2017-Oct-14 03:30N 44°50' E 020°38'0 0.0
2017-Oct-14 02:58N 44°50' E 020°38'0 0.0
2017-Oct-14 01:48N 44°50' E 020°38'0 0.0
2017-Oct-14 01:29N 44°50' E 020°38'0 0.0
2017-Oct-14 00:54N 44°50' E 020°38'0 0.0
2017-Oct-14 00:29N 44°50' E 020°38'0 0.0
2017-Oct-14 00:00N 44°50' E 020°38'0 0.0
2017-Oct-13 23:16N 44°50' E 020°38'0 0.0
2017-Oct-13 23:00N 44°50' E 020°38'0 0.0
2017-Oct-13 22:30N 44°50' E 020°38'0 0.0
2017-Oct-13 22:00N 44°50' E 020°38'0 0.0
2017-Oct-13 21:30N 44°50' E 020°38'0 0.0
2017-Oct-13 21:00N 44°50' E 020°38'0 0.0
2017-Oct-13 20:30N 44°50' E 020°38'1 1.2
2017-Oct-13 20:00N 44°51' E 020°39'0 0.0
2017-Oct-13 19:30N 44°51' E 020°39'0 0.0
2017-Oct-13 19:00N 44°51' E 020°39'0 0.0
2017-Oct-13 18:30N 44°51' E 020°39'0 0.0
2017-Oct-13 18:00N 44°51' E 020°39'0 0.0
2017-Oct-13 17:30N 44°51' E 020°39'0 0.0
2017-Oct-13 17:00N 44°51' E 020°39'0 0.0
2017-Oct-13 16:30N 44°51' E 020°39'0 0.0
2017-Oct-13 16:00N 44°51' E 020°39'0 0.0
2017-Oct-13 15:30N 44°51' E 020°39'0 0.0
2017-Oct-13 15:00N 44°51' E 020°39'0 0.0
2017-Oct-13 14:30N 44°51' E 020°39'0 0.0
2017-Oct-13 14:00N 44°51' E 020°39'0 0.0
2017-Oct-13 13:30N 44°51' E 020°39'0 0.0
2017-Oct-13 13:00N 44°51' E 020°39'0 0.0
2017-Oct-13 12:30N 44°51' E 020°39'0 0.0
2017-Oct-13 12:00N 44°51' E 020°39'0 0.0
2017-Oct-13 11:30N 44°51' E 020°39'0 0.0
2017-Oct-13 11:00N 44°51' E 020°39'0 0.0
2017-Oct-13 10:30N 44°51' E 020°39'0 0.0
2017-Oct-13 10:00N 44°51' E 020°39'0 0.0
2017-Oct-13 09:30N 44°51' E 020°39'0 0.0
2017-Oct-13 09:00N 44°51' E 020°39'0 0.0
2017-Oct-13 08:30N 44°51' E 020°39'0 0.0
2017-Oct-13 08:00N 44°51' E 020°39'1 1.1
2017-Oct-13 07:30N 44°50' E 020°38'0 0.0
2017-Oct-13 07:01N 44°50' E 020°38'0 0.4
2017-Oct-13 06:30N 44°50' E 020°38'1 2.8
2017-Oct-13 06:00N 44°49' E 020°38'2 3.3
2017-Oct-13 05:30N 44°47' E 020°38'3 3.0
2017-Oct-13 04:37N 44°45' E 020°39'12 2.5
2017-Oct-12 23:48N 44°41' E 020°56'1 3.1
2017-Oct-12 23:27N 44°41' E 020°57'1 3.1
2017-Oct-12 23:00N 44°42' E 020°58'1 3.0
2017-Oct-12 22:31N 44°43' E 020°60'1 2.9
2017-Oct-12 22:00N 44°43' E 021°02'18 2.6
2017-Oct-12 15:08N 44°46' E 021°27'1 2.8
2017-Oct-12 14:53N 44°47' E 021°27'1 2.9
2017-Oct-12 14:30N 44°46' E 021°29'1 2.5
2017-Oct-12 14:00N 44°46' E 021°31'0 0.1
2017-Oct-12 11:57N 44°46' E 021°31'0 0.7
2017-Oct-12 11:30N 44°46' E 021°31'0 0.3
2017-Oct-12 11:00N 44°46' E 021°31'0 0.4
2017-Oct-12 10:30N 44°46' E 021°31'0 0.4
2017-Oct-12 10:00N 44°46' E 021°31'0 0.6
2017-Oct-12 09:30N 44°46' E 021°31'2 4.0
2017-Oct-12 08:59N 44°46' E 021°34'2 3.9
2017-Oct-12 08:30N 44°45' E 021°36'2 4.1
2017-Oct-12 07:59N 44°43' E 021°37'2 3.8
2017-Oct-12 07:31N 44°42' E 021°39'2 4.0
2017-Oct-12 06:59N 44°40' E 021°41'14 4.0
2017-Oct-12 03:26N 44°36' E 022°00'2 4.1
2017-Oct-12 03:00N 44°35' E 022°01'2 4.5
2017-Oct-12 02:30N 44°33' E 022°02'2 4.4
2017-Oct-12 02:01N 44°31' E 022°04'2 4.4
2017-Oct-12 01:31N 44°29' E 022°06'2 4.5
2017-Oct-12 01:01N 44°28' E 022°09'2 4.2
2017-Oct-12 00:31N 44°30' E 022°12'  
Track history (hours):
 
Tides and Currents Weather Stations Pressure Air Temp Water Temp Dewpoint Dewpoint Depression Visibility Wind Speed Wind Dir Waves Ship Positions

Colmar

Last reported at 2017-Oct-16 00:10 UTC. Time now 2017-Oct-17 22:55 UTC.
Position N 45°11' E 020°11'.

Length 177 m; draft 2.4 m.

Type: Cargo ship. MMSI: 211557960.

Date/timePositionNaut miles runAvg speedWind from/ knotsBaromVisibWave heightAir tempDewpointWater temp
2017-Oct-16 00:10N 45°11' E 020°11'10 2.6
2017-Oct-15 20:19N 45°03' E 020°21'1 2.9
2017-Oct-15 20:00N 45°03' E 020°21'1 2.9
2017-Oct-15 19:31N 45°01' E 020°22'1 2.5
2017-Oct-15 19:00N 45°00' E 020°21'1 2.8
2017-Oct-15 18:30N 44°60' E 020°19'1 2.8
2017-Oct-15 18:01N 44°59' E 020°18'1 2.8
2017-Oct-15 17:30N 44°58' E 020°17'1 2.8
2017-Oct-15 17:01N 44°56' E 020°18'1 2.8
2017-Oct-15 16:30N 44°55' E 020°20'1 2.9
2017-Oct-15 16:01N 44°54' E 020°21'2 3.1
2017-Oct-15 15:31N 44°53' E 020°22'1 2.8
2017-Oct-15 15:01N 44°52' E 020°23'3 2.9
2017-Oct-15 14:01N 44°50' E 020°27'2 3.2
2017-Oct-15 13:30N 44°50' E 020°29'2 3.3
2017-Oct-15 13:00N 44°50' E 020°31'2 3.4
2017-Oct-15 12:30N 44°51' E 020°33'2 3.4
2017-Oct-15 12:00N 44°51' E 020°36'2 3.4
2017-Oct-15 11:30N 44°51' E 020°38'1 1.5
2017-Oct-15 11:00N 44°50' E 020°38'0 0.0
2017-Oct-15 10:30N 44°50' E 020°38'0 0.0
2017-Oct-15 10:00N 44°50' E 020°38'1 1.1
2017-Oct-15 09:30N 44°51' E 020°39'0 0.2
2017-Oct-15 09:00N 44°51' E 020°39'0 0.0
2017-Oct-15 08:30N 44°51' E 020°39'0 0.0
2017-Oct-15 08:00N 44°51' E 020°39'0 0.0
2017-Oct-15 07:30N 44°51' E 020°39'0 0.0
2017-Oct-15 07:00N 44°51' E 020°39'0 0.0
2017-Oct-15 06:30N 44°51' E 020°39'0 0.0
2017-Oct-15 06:00N 44°51' E 020°39'0 0.0
2017-Oct-15 05:30N 44°51' E 020°39'0 0.0
2017-Oct-15 05:00N 44°51' E 020°39'1 1.2
2017-Oct-15 04:30N 44°50' E 020°38'0 0.0
2017-Oct-15 03:59N 44°50' E 020°38'0 0.0
2017-Oct-15 03:28N 44°50' E 020°38'0 0.0
2017-Oct-15 03:00N 44°50' E 020°38'0 0.0
2017-Oct-15 02:30N 44°50' E 020°38'0 0.0
2017-Oct-15 01:58N 44°50' E 020°38'0 0.0
2017-Oct-15 01:30N 44°50' E 020°38'0 0.0
2017-Oct-15 01:00N 44°50' E 020°38'0 0.0
2017-Oct-15 00:30N 44°50' E 020°38'0 0.0
2017-Oct-15 00:00N 44°50' E 020°38'0 0.0
2017-Oct-14 23:30N 44°50' E 020°38'0 0.0
2017-Oct-14 23:00N 44°50' E 020°38'0 0.0
2017-Oct-14 22:30N 44°50' E 020°38'0 0.0
2017-Oct-14 22:00N 44°50' E 020°38'0 0.0
2017-Oct-14 21:30N 44°50' E 020°38'0 0.0
2017-Oct-14 21:00N 44°50' E 020°38'0 0.0
2017-Oct-14 20:30N 44°50' E 020°38'1 1.3
2017-Oct-14 20:00N 44°51' E 020°39'0 0.0
2017-Oct-14 19:30N 44°51' E 020°39'0 0.0
2017-Oct-14 19:00N 44°51' E 020°39'0 0.0
2017-Oct-14 18:30N 44°51' E 020°39'0 0.0
2017-Oct-14 18:00N 44°51' E 020°39'0 0.0
2017-Oct-14 17:30N 44°51' E 020°39'0 0.0
2017-Oct-14 17:00N 44°51' E 020°39'0 0.0
2017-Oct-14 16:30N 44°51' E 020°39'0 0.0
2017-Oct-14 16:00N 44°51' E 020°39'0 0.0
2017-Oct-14 15:30N 44°51' E 020°39'0 0.0
2017-Oct-14 15:00N 44°51' E 020°39'0 0.0
2017-Oct-14 14:30N 44°51' E 020°39'0 0.0
2017-Oct-14 14:00N 44°51' E 020°39'0 0.0
2017-Oct-14 13:30N 44°51' E 020°39'0 0.0
2017-Oct-14 13:00N 44°51' E 020°39'0 0.0
2017-Oct-14 12:30N 44°51' E 020°39'0 0.0
2017-Oct-14 12:00N 44°51' E 020°39'0 0.0
2017-Oct-14 11:30N 44°51' E 020°39'0 0.0
2017-Oct-14 11:00N 44°51' E 020°39'0 0.0
2017-Oct-14 10:30N 44°51' E 020°39'0 0.0
2017-Oct-14 10:00N 44°51' E 020°39'0 0.0
2017-Oct-14 09:30N 44°51' E 020°39'0 0.0
2017-Oct-14 09:00N 44°51' E 020°39'0 0.0
2017-Oct-14 08:30N 44°51' E 020°39'0 0.0
2017-Oct-14 08:00N 44°51' E 020°39'0 0.0
2017-Oct-14 07:30N 44°51' E 020°39'0 0.0
2017-Oct-14 07:00N 44°51' E 020°39'0 0.0
2017-Oct-14 06:30N 44°51' E 020°39'0 0.0
2017-Oct-14 06:00N 44°51' E 020°39'0 0.0
2017-Oct-14 05:30N 44°51' E 020°39'0 0.0
2017-Oct-14 05:00N 44°51' E 020°39'0 0.0
2017-Oct-14 04:30N 44°51' E 020°39'1 1.2
2017-Oct-14 04:00N 44°50' E 020°38'0 0.0
2017-Oct-14 03:30N 44°50' E 020°38'0 0.0
2017-Oct-14 02:58N 44°50' E 020°38'0 0.0
2017-Oct-14 01:48N 44°50' E 020°38'0 0.0
2017-Oct-14 01:29N 44°50' E 020°38'0 0.0
2017-Oct-14 00:54N 44°50' E 020°38'0 0.0
2017-Oct-14 00:29N 44°50' E 020°38'0 0.0
2017-Oct-14 00:00N 44°50' E 020°38'0 0.0
2017-Oct-13 23:16N 44°50' E 020°38'0 0.0
2017-Oct-13 23:00N 44°50' E 020°38'0 0.0
2017-Oct-13 22:30N 44°50' E 020°38'0 0.0
2017-Oct-13 22:00N 44°50' E 020°38'0 0.0
2017-Oct-13 21:30N 44°50' E 020°38'0 0.0
2017-Oct-13 21:00N 44°50' E 020°38'0 0.0
2017-Oct-13 20:30N 44°50' E 020°38'1 1.2
2017-Oct-13 20:00N 44°51' E 020°39'0 0.0
2017-Oct-13 19:30N 44°51' E 020°39'0 0.0
2017-Oct-13 19:00N 44°51' E 020°39'0 0.0
2017-Oct-13 18:30N 44°51' E 020°39'0 0.0
2017-Oct-13 18:00N 44°51' E 020°39'0 0.0
2017-Oct-13 17:30N 44°51' E 020°39'0 0.0
2017-Oct-13 17:00N 44°51' E 020°39'0 0.0
2017-Oct-13 16:30N 44°51' E 020°39'0 0.0
2017-Oct-13 16:00N 44°51' E 020°39'0 0.0
2017-Oct-13 15:30N 44°51' E 020°39'0 0.0
2017-Oct-13 15:00N 44°51' E 020°39'0 0.0
2017-Oct-13 14:30N 44°51' E 020°39'0 0.0
2017-Oct-13 14:00N 44°51' E 020°39'0 0.0
2017-Oct-13 13:30N 44°51' E 020°39'0 0.0
2017-Oct-13 13:00N 44°51' E 020°39'0 0.0
2017-Oct-13 12:30N 44°51' E 020°39'0 0.0
2017-Oct-13 12:00N 44°51' E 020°39'0 0.0
2017-Oct-13 11:30N 44°51' E 020°39'0 0.0
2017-Oct-13 11:00N 44°51' E 020°39'0 0.0
2017-Oct-13 10:30N 44°51' E 020°39'0 0.0
2017-Oct-13 10:00N 44°51' E 020°39'0 0.0
2017-Oct-13 09:30N 44°51' E 020°39'0 0.0
2017-Oct-13 09:00N 44°51' E 020°39'0 0.0
2017-Oct-13 08:30N 44°51' E 020°39'0 0.0
2017-Oct-13 08:00N 44°51' E 020°39'1 1.1
2017-Oct-13 07:30N 44°50' E 020°38'0 0.0
2017-Oct-13 07:01N 44°50' E 020°38'0 0.4
2017-Oct-13 06:30N 44°50' E 020°38'1 2.8
2017-Oct-13 06:00N 44°49' E 020°38'2 3.3
2017-Oct-13 05:30N 44°47' E 020°38'3 3.0
2017-Oct-13 04:37N 44°45' E 020°39'12 2.5
2017-Oct-12 23:48N 44°41' E 020°56'1 3.1
2017-Oct-12 23:27N 44°41' E 020°57'1 3.1
2017-Oct-12 23:00N 44°42' E 020°58'1 3.0
2017-Oct-12 22:31N 44°43' E 020°60'1 2.9
2017-Oct-12 22:00N 44°43' E 021°02'18 2.6
2017-Oct-12 15:08N 44°46' E 021°27'1 2.8
2017-Oct-12 14:53N 44°47' E 021°27'1 2.9
2017-Oct-12 14:30N 44°46' E 021°29'1 2.5
2017-Oct-12 14:00N 44°46' E 021°31'0 0.1
2017-Oct-12 11:57N 44°46' E 021°31'0 0.7
2017-Oct-12 11:30N 44°46' E 021°31'0 0.3
2017-Oct-12 11:00N 44°46' E 021°31'0 0.4
2017-Oct-12 10:30N 44°46' E 021°31'0 0.4
2017-Oct-12 10:00N 44°46' E 021°31'0 0.6
2017-Oct-12 09:30N 44°46' E 021°31'2 4.0
2017-Oct-12 08:59N 44°46' E 021°34'2 3.9
2017-Oct-12 08:30N 44°45' E 021°36'2 4.1
2017-Oct-12 07:59N 44°43' E 021°37'2 3.8
2017-Oct-12 07:31N 44°42' E 021°39'2 4.0
2017-Oct-12 06:59N 44°40' E 021°41'14 4.0
2017-Oct-12 03:26N 44°36' E 022°00'2 4.1
2017-Oct-12 03:00N 44°35' E 022°01'2 4.5
2017-Oct-12 02:30N 44°33' E 022°02'2 4.4
2017-Oct-12 02:01N 44°31' E 022°04'2 4.4
2017-Oct-12 01:31N 44°29' E 022°06'2 4.5
2017-Oct-12 01:01N 44°28' E 022°09'2 4.2
2017-Oct-12 00:31N 44°30' E 022°12'  

Dump ship's entire track history